Gulbeniz A — TCZK8 — position and weather

sailwx.info

Track history (hours):
 
Tides and Currents Weather Stations Pressure Air Temp Water Temp Dewpoint Dewpoint Depression Visibility Wind Speed Wind Dir Waves Ship Positions

Gulbeniz A

Last reported at 2016-May-05 12:33 UTC. Time now 2016-May-05 21:51 UTC.
Position N 39°23' W 000°17'.

Length 210 m; draft 8 m.

Type: Cargo ship. MMSI: 271042493.

Date/timePositionNaut miles runAvg speedWind from/ knotsBaromVisibWave heightAir tempDewpointWater temp
2016-May-05 12:33N 39°23' W 000°17'103 9.4
2016-May-05 01:33N 37°40' W 000°25'1211.9
2016-May-05 00:33N 37°31' W 000°34'1211.9
2016-May-04 23:33N 37°23' W 000°45'1211.8
2016-May-04 22:33N 37°15' W 000°56'1411.7
2016-May-04 21:23N 37°06' W 001°09'21011.2
2016-May-04 02:33N 36°00' W 005°17'  
2016-May-01 22:31N 29°03' W 013°06'10 9.7
2016-May-01 21:33N 28°55' W 013°13'10 9.7
2016-May-01 20:33N 28°48' W 013°19'10 9.9
2016-May-01 19:33N 28°40' W 013°26'1010.3
2016-May-01 18:33N 28°31' W 013°32'1010.3
2016-May-01 17:33N 28°23' W 013°39'  
2016-Apr-28 14:22N 15°60' W 017°41'1012.8
2016-Apr-28 13:33N 15°49' W 017°39'2311.1
2016-Apr-28 11:29N 15°27' W 017°42'1611.1
2016-Apr-28 10:04N 15°11' W 017°44'611.1
2016-Apr-28 09:30N 15°05' W 017°44'1311.0
2016-Apr-28 08:21N 14°52' W 017°43'910.7
2016-Apr-28 07:31N 14°43' W 017°43'1310.8
2016-Apr-28 06:19N 14°30' W 017°44'810.5
2016-Apr-28 05:33N 14°22' W 017°45'1010.5
2016-Apr-28 04:34N 14°12' W 017°46'1010.4
2016-Apr-28 03:33N 14°01' W 017°47'1110.7
2016-Apr-28 02:33N 13°51' W 017°49'1110.8
2016-Apr-28 01:34N 13°40' W 017°49'1110.5
2016-Apr-28 00:33N 13°29' W 017°51'1110.8
2016-Apr-27 23:31N 13°18' W 017°52'3711.1
2016-Apr-27 20:13N 12°42' W 017°55'1011.2
2016-Apr-27 19:21N 12°32' W 017°53'1011.1
2016-Apr-27 18:27N 12°23' W 017°50'14110.8
2016-Apr-27 05:25N 10°10' W 017°01'1110.6
2016-Apr-27 04:23N 10°01' W 016°55'4310.8
2016-Apr-27 00:23N 09°30' W 016°25'1011.4
2016-Apr-26 23:33N 09°24' W 016°17'27 5.5
2016-Apr-26 18:33N 09°06' W 015°56'  
Track history (hours):
 
Tides and Currents Weather Stations Pressure Air Temp Water Temp Dewpoint Dewpoint Depression Visibility Wind Speed Wind Dir Waves Ship Positions

Gulbeniz A

Last reported at 2016-May-05 12:33 UTC. Time now 2016-May-05 21:51 UTC.
Position N 39°23' W 000°17'.

Length 210 m; draft 8 m.

Type: Cargo ship. MMSI: 271042493.

Date/timePositionNaut miles runAvg speedWind from/ knotsBaromVisibWave heightAir tempDewpointWater temp
2016-May-05 12:33N 39°23' W 000°17'103 9.4
2016-May-05 01:33N 37°40' W 000°25'1211.9
2016-May-05 00:33N 37°31' W 000°34'1211.9
2016-May-04 23:33N 37°23' W 000°45'1211.8
2016-May-04 22:33N 37°15' W 000°56'1411.7
2016-May-04 21:23N 37°06' W 001°09'21011.2
2016-May-04 02:33N 36°00' W 005°17'  
2016-May-01 22:31N 29°03' W 013°06'10 9.7
2016-May-01 21:33N 28°55' W 013°13'10 9.7
2016-May-01 20:33N 28°48' W 013°19'10 9.9
2016-May-01 19:33N 28°40' W 013°26'1010.3
2016-May-01 18:33N 28°31' W 013°32'1010.3
2016-May-01 17:33N 28°23' W 013°39'  
2016-Apr-28 14:22N 15°60' W 017°41'1012.8
2016-Apr-28 13:33N 15°49' W 017°39'2311.1
2016-Apr-28 11:29N 15°27' W 017°42'1611.1
2016-Apr-28 10:04N 15°11' W 017°44'611.1
2016-Apr-28 09:30N 15°05' W 017°44'1311.0
2016-Apr-28 08:21N 14°52' W 017°43'910.7
2016-Apr-28 07:31N 14°43' W 017°43'1310.8
2016-Apr-28 06:19N 14°30' W 017°44'810.5
2016-Apr-28 05:33N 14°22' W 017°45'1010.5
2016-Apr-28 04:34N 14°12' W 017°46'1010.4
2016-Apr-28 03:33N 14°01' W 017°47'1110.7
2016-Apr-28 02:33N 13°51' W 017°49'1110.8
2016-Apr-28 01:34N 13°40' W 017°49'1110.5
2016-Apr-28 00:33N 13°29' W 017°51'1110.8
2016-Apr-27 23:31N 13°18' W 017°52'3711.1
2016-Apr-27 20:13N 12°42' W 017°55'1011.2
2016-Apr-27 19:21N 12°32' W 017°53'1011.1
2016-Apr-27 18:27N 12°23' W 017°50'14110.8
2016-Apr-27 05:25N 10°10' W 017°01'1110.6
2016-Apr-27 04:23N 10°01' W 016°55'4310.8
2016-Apr-27 00:23N 09°30' W 016°25'1011.4
2016-Apr-26 23:33N 09°24' W 016°17'27 5.5
2016-Apr-26 18:33N 09°06' W 015°56'  

Dump ship's entire track history